createdAt,value
2022-09-26T00:01:38.362Z,58.48
2022-09-26T00:04:12.913Z,58.45
2022-09-26T00:06:41.124Z,58.40
2022-09-26T00:09:09.492Z,58.32
2022-09-26T00:11:39.472Z,58.33
2022-09-26T00:14:12.290Z,58.31
2022-09-26T00:16:40.458Z,58.30
2022-09-26T00:19:08.577Z,58.27
2022-09-26T00:21:37.770Z,58.32
2022-09-26T00:24:06.880Z,58.38
2022-09-26T00:26:36.521Z,58.44
2022-09-26T00:29:07.536Z,58.32
2022-09-26T00:31:40.277Z,58.25
2022-09-26T00:34:08.610Z,58.11
2022-09-26T00:36:38.734Z,58.34
2022-09-26T00:39:09.436Z,58.44
2022-09-26T00:41:38.177Z,58.50
2022-09-26T00:44:34.710Z,58.52
2022-09-26T00:47:04.472Z,58.53
2022-09-26T00:49:44.241Z,58.58
2022-09-26T00:52:21.755Z,58.61
2022-09-26T00:54:54.159Z,58.65
2022-09-26T00:57:29.310Z,58.71
2022-09-26T01:00:02.882Z,58.83
2022-09-26T01:02:31.640Z,58.83
2022-09-26T01:05:01.872Z,58.84
2022-09-26T01:07:30.367Z,58.84
2022-09-26T01:09:59.035Z,59.00
2022-09-26T01:12:27.210Z,58.94
2022-09-26T01:14:56.105Z,58.85
2022-09-26T01:17:25.206Z,59.01
2022-09-26T01:20:18.025Z,58.83
2022-09-26T01:22:55.279Z,58.75
2022-09-26T01:25:54.026Z,58.70
2022-09-26T01:28:25.094Z,58.70
2022-09-26T01:31:01.857Z,58.75
2022-09-26T01:33:49.869Z,58.77
2022-09-26T01:36:39.505Z,58.70
2022-09-26T01:39:25.989Z,58.73
2022-09-26T01:41:59.747Z,59.04
2022-09-26T01:44:50.523Z,59.25
2022-09-26T01:47:26.503Z,59.24
2022-09-26T01:50:01.413Z,59.07
2022-09-26T01:52:39.557Z,59.19
2022-09-26T01:55:17.764Z,59.38
2022-09-26T01:57:54.146Z,59.47
2022-09-26T02:00:22.493Z,59.62
2022-09-26T02:02:51.877Z,59.83
2022-09-26T02:05:33.244Z,59.97
2022-09-26T02:08:14.911Z,59.72
2022-09-26T02:10:50.563Z,59.69
2022-09-26T02:13:23.650Z,59.77
2022-09-26T02:15:57.672Z,59.63
2022-09-26T02:18:33.290Z,59.98
2022-09-26T02:21:07.065Z,59.86
2022-09-26T02:23:35.148Z,59.95
2022-09-26T02:26:04.215Z,60.19
2022-09-26T02:28:33.077Z,60.29
2022-09-26T02:31:06.225Z,60.12
2022-09-26T02:33:35.377Z,60.12
2022-09-26T02:36:07.535Z,60.20
2022-09-26T02:38:37.783Z,60.32
2022-09-26T02:41:34.694Z,60.32
2022-09-26T02:44:29.166Z,60.23
2022-09-26T02:47:09.981Z,60.22
2022-09-26T02:50:08.315Z,60.24
2022-09-26T02:52:43.565Z,60.21
2022-09-26T02:55:21.802Z,60.09
2022-09-26T02:57:55.792Z,60.06
2022-09-26T03:00:28.961Z,60.00
2022-09-26T03:03:00.109Z,60.01
2022-09-26T03:05:30.940Z,60.47
2022-09-26T03:08:23.252Z,60.70
2022-09-26T03:10:54.944Z,61.15
2022-09-26T03:13:24.918Z,61.63
2022-09-26T03:15:56.697Z,61.99
2022-09-26T03:18:32.639Z,62.61
2022-09-26T03:21:02.344Z,62.80
2022-09-26T03:23:30.840Z,63.09
2022-09-26T03:26:16.680Z,63.60
2022-09-26T03:28:53.886Z,63.87
2022-09-26T03:31:24.890Z,63.89
2022-09-26T03:33:59.969Z,63.96
2022-09-26T03:36:28.776Z,64.15
2022-09-26T03:38:57.022Z,64.49
2022-09-26T03:41:40.511Z,64.53
2022-09-26T03:44:17.613Z,64.61
2022-09-26T03:47:05.165Z,64.69
2022-09-26T03:49:37.136Z,64.66
2022-09-26T03:52:07.668Z,64.69
2022-09-26T03:54:35.986Z,64.75
2022-09-26T03:57:04.168Z,64.87
2022-09-26T03:59:34.268Z,65.01
2022-09-26T04:02:02.693Z,64.99
2022-09-26T04:04:36.977Z,65.13
2022-09-26T04:07:06.182Z,65.09
2022-09-26T04:09:34.443Z,65.12
2022-09-26T04:12:02.517Z,65.11
2022-09-26T04:14:33.500Z,65.19
2022-09-26T04:17:03.462Z,65.49
2022-09-26T04:19:38.211Z,65.61
2022-09-26T04:22:08.595Z,66.00
2022-09-26T04:24:37.029Z,65.99
2022-09-26T04:27:05.813Z,66.00
2022-09-26T04:29:34.883Z,65.95
2022-09-26T04:32:17.817Z,66.06
2022-09-26T04:35:01.852Z,66.12
2022-09-26T04:37:31.383Z,65.97
2022-09-26T04:39:59.755Z,65.93
2022-09-26T04:42:28.642Z,66.23
2022-09-26T04:44:57.146Z,66.03
2022-09-26T04:47:25.608Z,66.22
2022-09-26T04:50:12.335Z,66.16
2022-09-26T04:52:41.189Z,66.30
2022-09-26T04:55:09.495Z,66.28
2022-09-26T04:57:38.818Z,66.40
2022-09-26T05:00:08.310Z,66.32
2022-09-26T05:02:36.692Z,66.29
2022-09-26T05:05:06.935Z,66.48
2022-09-26T05:07:40.416Z,66.40
2022-09-26T05:10:12.838Z,66.28
2022-09-26T05:12:48.081Z,66.18
2022-09-26T05:15:16.137Z,66.08
2022-09-26T05:17:45.568Z,66.03
2022-09-26T05:20:14.347Z,65.80
2022-09-26T05:22:57.577Z,65.58
2022-09-26T05:25:47.747Z,65.52
2022-09-26T05:28:16.331Z,65.46
2022-09-26T05:30:44.435Z,65.42
2022-09-26T05:33:13.578Z,65.53
2022-09-26T05:35:41.429Z,65.43
2022-09-26T05:38:09.654Z,65.41
2022-09-26T05:40:59.349Z,65.32
2022-09-26T05:43:30.970Z,65.37
2022-09-26T05:46:00.089Z,65.47
2022-09-26T05:48:32.376Z,65.34
2022-09-26T05:51:06.572Z,65.29
2022-09-26T05:53:35.147Z,65.33
2022-09-26T05:56:04.642Z,65.26
2022-09-26T05:58:40.325Z,65.39
2022-09-26T06:01:16.838Z,65.41
2022-09-26T06:03:46.942Z,65.48
2022-09-26T06:06:21.060Z,65.48
2022-09-26T06:08:54.773Z,65.33
2022-09-26T06:11:50.564Z,65.43
2022-09-26T06:14:18.296Z,65.55
2022-09-26T06:16:48.737Z,65.21
2022-09-26T06:19:22.052Z,65.40
2022-09-26T06:21:51.830Z,65.28
2022-09-26T06:24:21.430Z,65.13
2022-09-26T06:26:52.671Z,65.18
2022-09-26T06:29:20.949Z,65.30
2022-09-26T06:31:49.486Z,64.99
2022-09-26T06:34:17.590Z,64.90
2022-09-26T06:37:05.701Z,64.75
2022-09-26T06:39:37.342Z,64.66
2022-09-26T06:42:07.788Z,64.44
2022-09-26T06:44:59.154Z,64.24
2022-09-26T06:47:31.745Z,64.02
2022-09-26T06:50:18.538Z,64.10
2022-09-26T06:52:52.846Z,64.29
2022-09-26T06:55:22.862Z,64.44
2022-09-26T06:57:51.053Z,64.51
2022-09-26T07:00:19.980Z,64.57
2022-09-26T07:03:07.856Z,64.32
2022-09-26T07:05:51.946Z,64.09
2022-09-26T07:08:28.720Z,64.45
2022-09-26T07:11:28.258Z,64.65
2022-09-26T07:13:54.355Z,64.43
2022-09-26T07:16:24.268Z,64.44
2022-09-26T07:19:04.827Z,64.58
2022-09-26T07:21:39.233Z,64.85
2022-09-26T07:24:14.297Z,65.27
2022-09-26T07:26:43.745Z,65.34
2022-09-26T07:29:12.625Z,65.55
2022-09-26T07:31:41.511Z,65.93
2022-09-26T07:34:18.311Z,66.02
2022-09-26T07:36:47.641Z,66.43
2022-09-26T07:39:16.207Z,67.14
2022-09-26T07:41:46.799Z,67.78
2022-09-26T07:45:09.676Z,68.43
2022-09-26T07:47:22.130Z,69.00
2022-09-26T07:50:08.918Z,69.47
2022-09-26T07:52:46.157Z,70.31
2022-09-26T07:55:27.575Z,70.58
2022-09-26T07:58:10.421Z,71.23
2022-09-26T08:01:18.400Z,71.00
2022-09-26T08:04:12.065Z,71.58
2022-09-26T08:06:42.537Z,71.98
2022-09-26T08:09:11.742Z,71.82
2022-09-26T08:11:58.443Z,71.74
2022-09-26T08:14:49.253Z,71.15
2022-09-26T08:17:26.441Z,70.98
2022-09-26T08:19:54.864Z,70.65
2022-09-26T08:22:23.107Z,70.68
2022-09-26T08:24:55.105Z,70.72
2022-09-26T08:27:34.170Z,70.78
2022-09-26T08:30:03.167Z,70.61
2022-09-26T08:32:33.487Z,70.64
2022-09-26T08:35:02.115Z,70.56
2022-09-26T08:37:57.295Z,70.69
2022-09-26T08:40:59.667Z,70.53
2022-09-26T08:44:08.100Z,70.37
2022-09-26T08:47:12.088Z,70.34
2022-09-26T08:50:18.690Z,70.54
2022-09-26T08:52:54.445Z,70.52
2022-09-26T08:55:46.958Z,70.48
2022-09-26T08:58:29.148Z,70.54
2022-09-26T09:01:04.640Z,70.76
2022-09-26T09:04:02.628Z,71.04
2022-09-26T09:06:32.686Z,71.17
2022-09-26T09:09:01.185Z,71.48
2022-09-26T09:12:06.013Z,71.81
2022-09-26T09:15:26.660Z,71.99
2022-09-26T09:18:29.787Z,72.01
2022-09-26T09:21:43.549Z,72.17
2022-09-26T09:24:25.114Z,72.49
2022-09-26T09:30:21.613Z,72.52
2022-09-26T09:33:17.206Z,72.94
2022-09-26T09:35:57.852Z,73.38
2022-09-26T09:38:37.868Z,73.53
2022-09-26T09:41:21.556Z,73.50
2022-09-26T09:43:54.883Z,73.71
2022-09-26T09:46:38.409Z,73.63
2022-09-26T09:49:09.691Z,73.48
2022-09-26T09:51:51.458Z,73.30
2022-09-26T09:54:47.728Z,73.09
2022-09-26T09:57:18.941Z,72.98
2022-09-26T09:59:56.035Z,73.30
2022-09-26T10:02:37.211Z,73.11
2022-09-26T10:05:20.326Z,73.32
2022-09-26T10:07:49.765Z,73.48
2022-09-26T10:11:12.886Z,73.18
2022-09-26T10:14:07.435Z,72.75
2022-09-26T10:17:09.256Z,72.49
2022-09-26T10:19:45.231Z,72.42
2022-09-26T10:22:37.574Z,71.49
2022-09-26T10:25:17.055Z,71.18
2022-09-26T10:27:55.384Z,71.35
2022-09-26T10:30:28.398Z,71.39
2022-09-26T10:33:04.464Z,70.73
2022-09-26T10:36:21.852Z,70.28
2022-09-26T10:39:17.426Z,70.05
2022-09-26T10:41:47.613Z,70.09
2022-09-26T10:44:27.924Z,70.30
2022-09-26T10:47:18.923Z,70.39
2022-09-26T10:50:08.210Z,70.04
2022-09-26T10:52:50.614Z,70.13
2022-09-26T10:55:32.664Z,69.97
2022-09-26T10:58:08.974Z,69.70
2022-09-26T11:00:43.649Z,69.59
2022-09-26T11:03:22.102Z,69.58
2022-09-26T11:06:29.134Z,69.23
2022-09-26T11:09:05.322Z,69.02
2022-09-26T11:12:26.813Z,68.96
2022-09-26T11:15:06.094Z,68.47
2022-09-26T11:17:48.150Z,67.93
2022-09-26T11:20:40.774Z,67.78
2022-09-26T11:23:17.505Z,67.93
2022-09-26T11:25:58.220Z,67.81
2022-09-26T11:28:38.457Z,67.85
2022-09-26T11:31:35.542Z,67.63
2022-09-26T11:34:36.231Z,67.52
2022-09-26T11:37:13.115Z,67.56
2022-09-26T11:40:10.129Z,67.56
2022-09-26T11:43:16.796Z,67.83
2022-09-26T11:46:23.295Z,67.19
2022-09-26T11:49:50.868Z,66.51
2022-09-26T11:52:49.507Z,66.13
2022-09-26T11:55:20.658Z,65.62
2022-09-26T11:58:15.156Z,65.46
2022-09-26T12:00:58.063Z,64.98
2022-09-26T12:04:00.397Z,64.69
2022-09-26T12:06:37.546Z,64.90
2022-09-26T12:09:47.978Z,64.96
2022-09-26T12:12:24.557Z,64.89
2022-09-26T12:15:31.354Z,65.24
2022-09-26T12:18:22.301Z,64.65
2022-09-26T12:20:53.878Z,64.76
2022-09-26T12:23:35.618Z,64.29
2022-09-26T12:26:27.542Z,64.34
2022-09-26T12:28:58.447Z,63.84
2022-09-26T12:31:56.166Z,63.34
2022-09-26T12:34:44.773Z,63.18
2022-09-26T12:38:00.256Z,62.88
2022-09-26T12:40:34.571Z,62.38
2022-09-26T12:43:19.348Z,61.86
2022-09-26T12:46:11.156Z,61.71
2022-09-26T12:49:13.777Z,61.27
2022-09-26T12:51:52.309Z,60.15
2022-09-26T12:54:57.458Z,59.46
2022-09-26T12:57:30.721Z,59.04
2022-09-26T13:00:14.259Z,58.66
2022-09-26T13:03:10.210Z,59.56
2022-09-26T13:05:41.454Z,59.56
2022-09-26T13:08:38.944Z,59.18
2022-09-26T13:11:13.113Z,59.91
2022-09-26T13:13:55.800Z,60.39
2022-09-26T13:16:47.073Z,60.61
2022-09-26T13:19:35.780Z,60.59
2022-09-26T13:22:09.380Z,60.34
2022-09-26T13:24:47.944Z,59.85
2022-09-26T13:27:34.571Z,60.17
2022-09-26T13:30:13.360Z,60.28
2022-09-26T13:33:11.143Z,60.64
2022-09-26T13:35:54.709Z,60.77
2022-09-26T13:38:54.905Z,60.97
2022-09-26T13:41:52.095Z,60.85
2022-09-26T13:44:38.134Z,60.75
2022-09-26T13:47:30.606Z,61.40
2022-09-26T13:50:19.961Z,62.02
2022-09-26T13:53:08.099Z,62.07
2022-09-26T13:55:36.591Z,62.05
2022-09-26T13:58:19.259Z,62.28
2022-09-26T14:00:53.633Z,62.04
2022-09-26T14:03:23.654Z,62.42
2022-09-26T14:06:07.423Z,62.77
2022-09-26T14:08:55.312Z,62.87
2022-09-26T14:11:46.054Z,62.75
2022-09-26T14:14:18.335Z,62.65
2022-09-26T14:17:02.842Z,62.29
2022-09-26T14:19:41.220Z,62.12
2022-09-26T14:22:21.576Z,62.09
2022-09-26T14:24:50.295Z,62.01
2022-09-26T14:27:18.270Z,61.84
2022-09-26T14:29:54.052Z,61.82
2022-09-26T14:32:27.224Z,62.25
2022-09-26T14:34:59.337Z,62.34
2022-09-26T14:37:39.525Z,62.52
2022-09-26T14:40:10.384Z,62.80
2022-09-26T14:42:58.843Z,63.11
2022-09-26T14:45:44.746Z,63.11
2022-09-26T14:48:26.043Z,63.06
2022-09-26T14:51:04.761Z,63.16
2022-09-26T14:53:47.893Z,63.09
2022-09-26T14:56:38.552Z,63.16
2022-09-26T14:59:24.802Z,63.07
2022-09-26T15:02:09.860Z,63.40
2022-09-26T15:04:38.932Z,63.55
2022-09-26T15:07:16.319Z,63.65
2022-09-26T15:10:02.553Z,64.12
2022-09-26T15:12:52.547Z,64.45
2022-09-26T15:15:47.597Z,64.46
2022-09-26T15:18:27.868Z,64.65
2022-09-26T15:21:29.483Z,64.63
2022-09-26T15:23:57.739Z,64.74
2022-09-26T15:26:34.883Z,64.75
2022-09-26T15:29:07.278Z,64.84
2022-09-26T15:31:41.758Z,64.89
2022-09-26T15:34:21.765Z,65.05
2022-09-26T15:36:58.190Z,65.06
2022-09-26T15:39:32.829Z,65.23
2022-09-26T15:42:31.835Z,65.29
2022-09-26T15:45:01.673Z,65.27
2022-09-26T15:47:30.033Z,65.31
2022-09-26T15:50:23.624Z,65.56
2022-09-26T15:53:06.094Z,65.75
2022-09-26T15:55:42.656Z,66.10
2022-09-26T15:58:15.901Z,66.14
2022-09-26T16:00:49.065Z,66.34
2022-09-26T16:03:55.425Z,66.41
2022-09-26T16:06:30.901Z,66.44
2022-09-26T16:09:06.112Z,66.70
2022-09-26T16:11:51.596Z,66.61
2022-09-26T16:14:29.232Z,66.37
2022-09-26T16:17:24.073Z,66.58
2022-09-26T16:19:58.378Z,66.62
2022-09-26T16:22:52.506Z,66.86
2022-09-26T16:25:53.625Z,67.11
2022-09-26T16:28:42.772Z,66.92
2022-09-26T16:31:28.177Z,66.81
2022-09-26T16:33:58.633Z,66.70
2022-09-26T16:36:33.210Z,66.73
2022-09-26T16:39:04.811Z,66.84
2022-09-26T16:42:02.255Z,66.59
2022-09-26T16:44:41.117Z,66.87
2022-09-26T16:47:44.117Z,67.10
2022-09-26T16:50:29.318Z,67.06
2022-09-26T16:52:57.797Z,67.20
2022-09-26T16:55:27.458Z,67.06
2022-09-26T16:58:05.911Z,67.37
2022-09-26T17:00:53.952Z,67.11
2022-09-26T17:03:24.621Z,67.11
2022-09-26T17:05:55.673Z,67.34
2022-09-26T17:08:26.506Z,67.36
2022-09-26T17:10:57.414Z,67.53
2022-09-26T17:13:27.614Z,67.59
2022-09-26T17:15:58.207Z,67.65
2022-09-26T17:18:29.695Z,67.62
2022-09-26T17:20:59.290Z,67.78
2022-09-26T17:23:44.561Z,67.82
2022-09-26T17:26:21.546Z,68.09
2022-09-26T17:28:53.353Z,68.17
2022-09-26T17:31:21.559Z,68.17
2022-09-26T17:33:53.455Z,68.02
2022-09-26T17:36:24.808Z,68.04
2022-09-26T17:38:53.750Z,68.11
2022-09-26T17:41:23.204Z,68.57
2022-09-26T17:44:00.666Z,68.38
2022-09-26T17:46:29.743Z,68.92
2022-09-26T17:48:59.334Z,68.70
2022-09-26T17:51:27.287Z,68.80
2022-09-26T17:53:57.558Z,68.90
2022-09-26T17:56:26.699Z,69.06
2022-09-26T17:58:57.325Z,69.15
2022-09-26T18:01:34.526Z,68.91
2022-09-26T18:04:07.333Z,68.80
2022-09-26T18:06:37.041Z,69.26
2022-09-26T18:09:07.543Z,69.17
2022-09-26T18:11:37.535Z,69.02
2022-09-26T18:14:08.069Z,68.93
2022-09-26T18:16:36.202Z,69.18
2022-09-26T18:19:14.143Z,69.30
2022-09-26T18:21:42.122Z,69.56
2022-09-26T18:24:19.410Z,69.80
2022-09-26T18:26:51.187Z,69.80
2022-09-26T18:29:35.917Z,70.01
2022-09-26T18:32:12.071Z,69.93
2022-09-26T18:34:41.255Z,69.80
2022-09-26T18:37:09.398Z,69.70
2022-09-26T18:39:37.397Z,69.81
2022-09-26T18:42:09.443Z,70.25
2022-09-26T18:44:37.740Z,70.14
2022-09-26T18:47:13.508Z,70.03
2022-09-26T18:49:42.035Z,69.86
2022-09-26T18:52:18.120Z,69.96
2022-09-26T18:54:47.050Z,70.09
2022-09-26T18:57:33.477Z,70.15
2022-09-26T19:00:02.791Z,70.06
2022-09-26T19:02:38.398Z,69.97
2022-09-26T19:05:10.150Z,69.70
2022-09-26T19:07:38.324Z,69.93
2022-09-26T19:10:10.438Z,70.06
2022-09-26T19:12:39.640Z,70.23
2022-09-26T19:15:14.977Z,70.30
2022-09-26T19:17:43.511Z,70.27
2022-09-26T19:20:11.448Z,70.13
2022-09-26T19:22:39.959Z,70.14
2022-09-26T19:25:10.513Z,70.18
2022-09-26T19:27:48.940Z,70.29
2022-09-26T19:30:20.364Z,70.33
2022-09-26T19:32:52.900Z,70.42
2022-09-26T19:35:30.455Z,70.33
2022-09-26T19:38:00.440Z,70.13
2022-09-26T19:40:29.119Z,70.18
2022-09-26T19:42:58.366Z,70.45
2022-09-26T19:45:27.055Z,70.57
2022-09-26T19:47:56.411Z,70.66
2022-09-26T19:50:28.732Z,70.70
2022-09-26T19:53:00.942Z,70.76
2022-09-26T19:55:31.520Z,70.81
2022-09-26T19:58:12.953Z,70.89
2022-09-26T20:00:43.635Z,70.79
2022-09-26T20:03:19.469Z,70.78
2022-09-26T20:05:49.479Z,70.81
2022-09-26T20:08:25.288Z,70.66
2022-09-26T20:10:55.679Z,70.69
2022-09-26T20:13:23.799Z,70.87
2022-09-26T20:15:51.873Z,71.10
2022-09-26T20:18:24.323Z,71.03
2022-09-26T20:20:55.837Z,70.95
2022-09-26T20:23:26.930Z,71.03
2022-09-26T20:25:55.764Z,70.96
2022-09-26T20:28:23.994Z,71.07
2022-09-26T20:30:52.012Z,71.25
2022-09-26T20:33:22.397Z,71.23
2022-09-26T20:36:11.520Z,71.19
2022-09-26T20:38:42.580Z,71.19
2022-09-26T20:41:19.005Z,71.21
2022-09-26T20:43:51.818Z,71.24
2022-09-26T20:46:22.204Z,71.47
2022-09-26T20:48:50.849Z,71.48
2022-09-26T20:51:23.631Z,71.39
2022-09-26T20:53:52.125Z,71.28
2022-09-26T20:56:21.310Z,71.41
2022-09-26T20:58:50.068Z,71.43
2022-09-26T21:01:20.389Z,71.56
2022-09-26T21:03:52.710Z,71.54
2022-09-26T21:06:23.479Z,71.66
2022-09-26T21:08:51.445Z,71.41
2022-09-26T21:11:21.138Z,71.41
2022-09-26T21:13:49.577Z,71.20
2022-09-26T21:16:21.825Z,71.39
2022-09-26T21:18:52.547Z,71.48
2022-09-26T21:21:21.994Z,71.50
2022-09-26T21:24:15.951Z,71.49
2022-09-26T21:26:43.909Z,71.47
2022-09-26T21:29:15.838Z,71.56
2022-09-26T21:31:49.482Z,71.24
2022-09-26T21:34:26.942Z,71.37
2022-09-26T21:36:57.495Z,71.45
2022-09-26T21:39:26.516Z,71.41
2022-09-26T21:41:58.735Z,71.54
2022-09-26T21:44:42.985Z,71.76
2022-09-26T21:47:11.287Z,71.59
2022-09-26T21:49:39.315Z,71.64
2022-09-26T21:52:12.688Z,71.70
2022-09-26T21:54:44.310Z,71.79
2022-09-26T21:57:29.339Z,71.92
2022-09-26T21:59:58.756Z,72.10
2022-09-26T22:02:27.668Z,72.06
2022-09-26T22:04:56.035Z,72.16
2022-09-26T22:07:24.173Z,72.13
2022-09-26T22:09:52.689Z,72.03
2022-09-26T22:12:20.906Z,72.06
2022-09-26T22:14:48.857Z,71.99
2022-09-26T22:17:17.508Z,72.04
2022-09-26T22:19:45.591Z,72.15
2022-09-26T22:22:13.647Z,72.10
2022-09-26T22:24:41.740Z,72.05
2022-09-26T22:27:09.807Z,71.95
2022-09-26T22:29:37.822Z,71.98
2022-09-26T22:32:06.572Z,71.80
2022-09-26T22:34:34.779Z,71.81
2022-09-26T22:37:02.975Z,71.72
2022-09-26T22:39:31.047Z,71.68
2022-09-26T22:41:58.988Z,71.61
2022-09-26T22:44:27.457Z,71.56
2022-09-26T22:46:55.768Z,71.41
2022-09-26T22:49:24.303Z,71.43
2022-09-26T22:51:53.003Z,71.34
2022-09-26T22:54:21.007Z,71.19
2022-09-26T22:56:49.319Z,71.38
2022-09-26T22:59:17.360Z,71.45
2022-09-26T23:01:45.432Z,71.54
2022-09-26T23:04:13.334Z,71.57
2022-09-26T23:06:41.498Z,71.77
2022-09-26T23:09:09.768Z,71.82
2022-09-26T23:11:38.089Z,71.76
2022-09-26T23:14:06.866Z,71.81
2022-09-26T23:16:34.909Z,71.89
2022-09-26T23:19:03.256Z,71.90
2022-09-26T23:21:31.248Z,71.99
2022-09-26T23:24:00.619Z,72.09
2022-09-26T23:26:32.070Z,71.96
2022-09-26T23:29:00.654Z,72.01
2022-09-26T23:31:29.021Z,72.12
2022-09-26T23:33:57.946Z,72.26
2022-09-26T23:36:26.067Z,72.08
2022-09-26T23:38:57.456Z,72.13
2022-09-26T23:41:26.009Z,72.21
2022-09-26T23:43:54.274Z,72.27
2022-09-26T23:46:22.478Z,72.20
2022-09-26T23:48:51.092Z,72.13
2022-09-26T23:51:19.663Z,72.20
2022-09-26T23:53:48.918Z,72.23
2022-09-26T23:56:17.061Z,72.08
2022-09-26T23:58:44.957Z,72.03
